sensor_id;sensor_type;location;lat;lon;timestamp;P1;durP1;ratioP1;P2;durP2;ratioP2
68821;SDS011;55834;50.870;4.606;2023-07-31T00:01:23;4.53;;;2.33;;
68821;SDS011;55834;50.870;4.606;2023-07-31T00:03:49;8.97;;;2.80;;
68821;SDS011;55834;50.870;4.606;2023-07-31T00:06:14;6.85;;;2.33;;
68821;SDS011;55834;50.870;4.606;2023-07-31T00:08:39;15.27;;;3.53;;
68821;SDS011;55834;50.870;4.606;2023-07-31T00:11:05;9.10;;;2.83;;
68821;SDS011;55834;50.870;4.606;2023-07-31T00:13:30;7.03;;;3.17;;
68821;SDS011;55834;50.870;4.606;2023-07-31T00:15:55;6.20;;;2.40;;
68821;SDS011;55834;50.870;4.606;2023-07-31T00:18:21;5.20;;;2.30;;
68821;SDS011;55834;50.870;4.606;2023-07-31T00:20:46;11.43;;;3.13;;
68821;SDS011;55834;50.870;4.606;2023-07-31T00:23:12;6.20;;;2.42;;
68821;SDS011;55834;50.870;4.606;2023-07-31T00:25:37;12.00;;;3.78;;
68821;SDS011;55834;50.870;4.606;2023-07-31T00:28:03;8.30;;;2.67;;
68821;SDS011;55834;50.870;4.606;2023-07-31T00:30:28;7.90;;;3.13;;
68821;SDS011;55834;50.870;4.606;2023-07-31T00:32:54;8.50;;;2.40;;
68821;SDS011;55834;50.870;4.606;2023-07-31T00:35:19;7.07;;;3.30;;
68821;SDS011;55834;50.870;4.606;2023-07-31T00:37:44;7.73;;;3.17;;
68821;SDS011;55834;50.870;4.606;2023-07-31T00:40:10;8.13;;;3.60;;
68821;SDS011;55834;50.870;4.606;2023-07-31T00:42:35;7.28;;;3.28;;
68821;SDS011;55834;50.870;4.606;2023-07-31T00:45:01;7.73;;;2.73;;
68821;SDS011;55834;50.870;4.606;2023-07-31T00:47:26;7.00;;;2.53;;
68821;SDS011;55834;50.870;4.606;2023-07-31T00:49:51;6.25;;;2.75;;
68821;SDS011;55834;50.870;4.606;2023-07-31T00:52:18;7.70;;;3.03;;
68821;SDS011;55834;50.870;4.606;2023-07-31T00:54:44;8.57;;;2.70;;
68821;SDS011;55834;50.870;4.606;2023-07-31T00:57:09;6.22;;;3.13;;
68821;SDS011;55834;50.870;4.606;2023-07-31T00:59:35;7.43;;;3.35;;
68821;SDS011;55834;50.870;4.606;2023-07-31T01:02:00;6.80;;;2.83;;
68821;SDS011;55834;50.870;4.606;2023-07-31T01:04:26;9.25;;;3.65;;
68821;SDS011;55834;50.870;4.606;2023-07-31T01:07:11;8.20;;;3.33;;
68821;SDS011;55834;50.870;4.606;2023-07-31T01:12:38;9.93;;;3.08;;
68821;SDS011;55834;50.870;4.606;2023-07-31T01:15:07;6.03;;;2.92;;
68821;SDS011;55834;50.870;4.606;2023-07-31T01:17:37;7.60;;;2.53;;
68821;SDS011;55834;50.870;4.606;2023-07-31T01:20:05;7.57;;;3.00;;
68821;SDS011;55834;50.870;4.606;2023-07-31T01:22:44;5.70;;;2.65;;
68821;SDS011;55834;50.870;4.606;2023-07-31T01:28:20;7.80;;;2.78;;
68821;SDS011;55834;50.870;4.606;2023-07-31T01:30:52;6.25;;;3.30;;
68821;SDS011;55834;50.870;4.606;2023-07-31T01:33:23;9.70;;;3.22;;
68821;SDS011;55834;50.870;4.606;2023-07-31T01:35:48;6.93;;;3.47;;
68821;SDS011;55834;50.870;4.606;2023-07-31T01:38:14;6.55;;;3.08;;
68821;SDS011;55834;50.870;4.606;2023-07-31T01:40:41;6.97;;;2.97;;
68821;SDS011;55834;50.870;4.606;2023-07-31T01:43:06;6.35;;;2.60;;
68821;SDS011;55834;50.870;4.606;2023-07-31T01:45:32;6.83;;;2.80;;
68821;SDS011;55834;50.870;4.606;2023-07-31T01:47:57;6.63;;;2.67;;
68821;SDS011;55834;50.870;4.606;2023-07-31T01:50:22;4.47;;;2.87;;
68821;SDS011;55834;50.870;4.606;2023-07-31T01:52:48;7.03;;;3.03;;
68821;SDS011;55834;50.870;4.606;2023-07-31T01:55:16;5.90;;;3.20;;
68821;SDS011;55834;50.870;4.606;2023-07-31T01:57:41;10.45;;;3.85;;
68821;SDS011;55834;50.870;4.606;2023-07-31T02:00:07;8.07;;;2.87;;
68821;SDS011;55834;50.870;4.606;2023-07-31T02:02:32;8.27;;;3.47;;
68821;SDS011;55834;50.870;4.606;2023-07-31T02:04:58;7.38;;;2.88;;
68821;SDS011;55834;50.870;4.606;2023-07-31T02:07:23;10.27;;;4.03;;
68821;SDS011;55834;50.870;4.606;2023-07-31T02:09:48;7.40;;;3.40;;
68821;SDS011;55834;50.870;4.606;2023-07-31T02:12:14;5.95;;;3.33;;
68821;SDS011;55834;50.870;4.606;2023-07-31T02:14:40;9.57;;;2.90;;
68821;SDS011;55834;50.870;4.606;2023-07-31T02:17:05;9.65;;;3.92;;
68821;SDS011;55834;50.870;4.606;2023-07-31T02:19:31;8.23;;;2.55;;
68821;SDS011;55834;50.870;4.606;2023-07-31T02:21:56;6.37;;;2.80;;
68821;SDS011;55834;50.870;4.606;2023-07-31T02:24:21;7.90;;;2.58;;
68821;SDS011;55834;50.870;4.606;2023-07-31T02:26:47;7.57;;;3.30;;
68821;SDS011;55834;50.870;4.606;2023-07-31T02:29:12;5.93;;;2.80;;
68821;SDS011;55834;50.870;4.606;2023-07-31T02:31:37;9.83;;;3.20;;
68821;SDS011;55834;50.870;4.606;2023-07-31T02:34:03;5.00;;;2.60;;
68821;SDS011;55834;50.870;4.606;2023-07-31T02:36:28;5.60;;;3.37;;
68821;SDS011;55834;50.870;4.606;2023-07-31T02:38:53;5.20;;;3.00;;
68821;SDS011;55834;50.870;4.606;2023-07-31T02:41:19;9.43;;;3.33;;
68821;SDS011;55834;50.870;4.606;2023-07-31T02:43:44;4.47;;;2.57;;
68821;SDS011;55834;50.870;4.606;2023-07-31T02:46:09;6.53;;;3.30;;
68821;SDS011;55834;50.870;4.606;2023-07-31T02:48:35;6.07;;;2.60;;
68821;SDS011;55834;50.870;4.606;2023-07-31T02:51:00;7.23;;;3.30;;
68821;SDS011;55834;50.870;4.606;2023-07-31T02:53:25;6.43;;;3.13;;
68821;SDS011;55834;50.870;4.606;2023-07-31T02:55:51;5.60;;;2.83;;
68821;SDS011;55834;50.870;4.606;2023-07-31T02:58:16;5.87;;;2.67;;
68821;SDS011;55834;50.870;4.606;2023-07-31T03:00:42;5.83;;;3.40;;
68821;SDS011;55834;50.870;4.606;2023-07-31T03:03:08;5.90;;;3.92;;
68821;SDS011;55834;50.870;4.606;2023-07-31T03:05:33;6.35;;;2.65;;
68821;SDS011;55834;50.870;4.606;2023-07-31T03:07:59;5.77;;;3.57;;
68821;SDS011;55834;50.870;4.606;2023-07-31T03:10:24;3.85;;;2.75;;
68821;SDS011;55834;50.870;4.606;2023-07-31T03:12:50;6.10;;;2.93;;
68821;SDS011;55834;50.870;4.606;2023-07-31T03:15:15;3.73;;;3.23;;
68821;SDS011;55834;50.870;4.606;2023-07-31T03:17:40;9.57;;;3.40;;
68821;SDS011;55834;50.870;4.606;2023-07-31T03:20:06;4.03;;;2.50;;
68821;SDS011;55834;50.870;4.606;2023-07-31T03:22:32;3.35;;;2.85;;
68821;SDS011;55834;50.870;4.606;2023-07-31T03:24:57;4.40;;;2.50;;
68821;SDS011;55834;50.870;4.606;2023-07-31T03:27:22;5.10;;;2.37;;
68821;SDS011;55834;50.870;4.606;2023-07-31T03:29:48;4.73;;;2.17;;
68821;SDS011;55834;50.870;4.606;2023-07-31T03:32:16;5.72;;;3.10;;
68821;SDS011;55834;50.870;4.606;2023-07-31T03:34:41;4.93;;;2.83;;
68821;SDS011;55834;50.870;4.606;2023-07-31T03:37:06;10.73;;;3.70;;
68821;SDS011;55834;50.870;4.606;2023-07-31T03:39:34;4.28;;;3.05;;
68821;SDS011;55834;50.870;4.606;2023-07-31T03:41:59;5.35;;;2.65;;
68821;SDS011;55834;50.870;4.606;2023-07-31T03:44:25;4.70;;;3.10;;
68821;SDS011;55834;50.870;4.606;2023-07-31T03:46:51;3.80;;;2.83;;
68821;SDS011;55834;50.870;4.606;2023-07-31T03:49:16;4.70;;;3.65;;
68821;SDS011;55834;50.870;4.606;2023-07-31T03:51:41;5.33;;;3.30;;
68821;SDS011;55834;50.870;4.606;2023-07-31T03:54:07;3.60;;;2.40;;
68821;SDS011;55834;50.870;4.606;2023-07-31T03:56:33;4.68;;;2.90;;
68821;SDS011;55834;50.870;4.606;2023-07-31T03:58:58;4.70;;;2.92;;
68821;SDS011;55834;50.870;4.606;2023-07-31T04:01:24;4.43;;;2.40;;
68821;SDS011;55834;50.870;4.606;2023-07-31T04:03:49;5.40;;;2.92;;
68821;SDS011;55834;50.870;4.606;2023-07-31T04:06:15;4.80;;;2.60;;
68821;SDS011;55834;50.870;4.606;2023-07-31T04:08:43;3.17;;;2.15;;
68821;SDS011;55834;50.870;4.606;2023-07-31T04:11:09;5.25;;;2.92;;
68821;SDS011;55834;50.870;4.606;2023-07-31T04:13:34;4.33;;;2.73;;
68821;SDS011;55834;50.870;4.606;2023-07-31T04:15:59;5.20;;;2.83;;
68821;SDS011;55834;50.870;4.606;2023-07-31T04:18:25;8.18;;;3.25;;
68821;SDS011;55834;50.870;4.606;2023-07-31T04:20:51;5.05;;;2.17;;
68821;SDS011;55834;50.870;4.606;2023-07-31T04:23:16;7.30;;;3.03;;
68821;SDS011;55834;50.870;4.606;2023-07-31T04:25:41;3.97;;;2.57;;
68821;SDS011;55834;50.870;4.606;2023-07-31T04:28:07;5.17;;;2.43;;
68821;SDS011;55834;50.870;4.606;2023-07-31T04:30:33;6.38;;;2.70;;
68821;SDS011;55834;50.870;4.606;2023-07-31T04:32:59;8.27;;;3.20;;
68821;SDS011;55834;50.870;4.606;2023-07-31T04:35:24;3.47;;;2.90;;
68821;SDS011;55834;50.870;4.606;2023-07-31T04:37:50;4.10;;;2.80;;
68821;SDS011;55834;50.870;4.606;2023-07-31T04:40:15;7.10;;;3.00;;
68821;SDS011;55834;50.870;4.606;2023-07-31T04:42:41;7.68;;;2.60;;
68821;SDS011;55834;50.870;4.606;2023-07-31T04:45:08;5.50;;;2.70;;
68821;SDS011;55834;50.870;4.606;2023-07-31T04:47:34;5.20;;;2.47;;
68821;SDS011;55834;50.870;4.606;2023-07-31T04:49:59;4.10;;;2.50;;
68821;SDS011;55834;50.870;4.606;2023-07-31T04:52:24;5.28;;;3.25;;
68821;SDS011;55834;50.870;4.606;2023-07-31T04:54:50;5.20;;;2.33;;
68821;SDS011;55834;50.870;4.606;2023-07-31T04:57:15;7.43;;;2.40;;
68821;SDS011;55834;50.870;4.606;2023-07-31T04:59:41;4.23;;;2.27;;
68821;SDS011;55834;50.870;4.606;2023-07-31T05:02:07;4.03;;;2.87;;
68821;SDS011;55834;50.870;4.606;2023-07-31T05:04:34;3.28;;;2.50;;
68821;SDS011;55834;50.870;4.606;2023-07-31T05:06:59;7.00;;;2.70;;
68821;SDS011;55834;50.870;4.606;2023-07-31T05:09:24;6.63;;;3.05;;
68821;SDS011;55834;50.870;4.606;2023-07-31T05:11:50;8.40;;;2.70;;
68821;SDS011;55834;50.870;4.606;2023-07-31T05:14:15;3.00;;;2.70;;
68821;SDS011;55834;50.870;4.606;2023-07-31T05:16:41;8.57;;;2.65;;
68821;SDS011;55834;50.870;4.606;2023-07-31T05:19:06;5.05;;;2.38;;
68821;SDS011;55834;50.870;4.606;2023-07-31T05:21:31;3.25;;;2.50;;
68821;SDS011;55834;50.870;4.606;2023-07-31T05:23:57;6.00;;;3.67;;
68821;SDS011;55834;50.870;4.606;2023-07-31T05:26:22;4.17;;;2.63;;
68821;SDS011;55834;50.870;4.606;2023-07-31T05:28:48;4.05;;;2.42;;
68821;SDS011;55834;50.870;4.606;2023-07-31T05:31:17;6.30;;;2.60;;
68821;SDS011;55834;50.870;4.606;2023-07-31T05:33:42;2.90;;;2.22;;
68821;SDS011;55834;50.870;4.606;2023-07-31T05:36:08;5.18;;;2.42;;
68821;SDS011;55834;50.870;4.606;2023-07-31T05:38:34;3.72;;;2.58;;
68821;SDS011;55834;50.870;4.606;2023-07-31T05:41:00;3.42;;;2.45;;
68821;SDS011;55834;50.870;4.606;2023-07-31T05:43:25;3.92;;;2.22;;
68821;SDS011;55834;50.870;4.606;2023-07-31T05:45:50;4.10;;;2.50;;
68821;SDS011;55834;50.870;4.606;2023-07-31T05:48:16;5.50;;;3.03;;
68821;SDS011;55834;50.870;4.606;2023-07-31T05:50:42;5.25;;;2.85;;
68821;SDS011;55834;50.870;4.606;2023-07-31T05:55:35;5.75;;;2.80;;
68821;SDS011;55834;50.870;4.606;2023-07-31T05:58:00;5.25;;;2.50;;
68821;SDS011;55834;50.870;4.606;2023-07-31T06:00:26;2.33;;;1.80;;
68821;SDS011;55834;50.870;4.606;2023-07-31T06:02:52;5.25;;;2.58;;
68821;SDS011;55834;50.870;4.606;2023-07-31T06:05:18;2.67;;;2.17;;
68821;SDS011;55834;50.870;4.606;2023-07-31T06:07:43;12.38;;;3.63;;
68821;SDS011;55834;50.870;4.606;2023-07-31T06:10:08;4.53;;;2.30;;
68821;SDS011;55834;50.870;4.606;2023-07-31T06:12:34;4.45;;;2.55;;
68821;SDS011;55834;50.870;4.606;2023-07-31T06:15:01;5.63;;;2.88;;
68821;SDS011;55834;50.870;4.606;2023-07-31T06:17:28;5.05;;;2.88;;
68821;SDS011;55834;50.870;4.606;2023-07-31T06:19:54;2.75;;;2.22;;
68821;SDS011;55834;50.870;4.606;2023-07-31T06:22:19;6.40;;;2.80;;
68821;SDS011;55834;50.870;4.606;2023-07-31T06:24:45;3.90;;;2.45;;
68821;SDS011;55834;50.870;4.606;2023-07-31T06:27:11;4.88;;;2.40;;
68821;SDS011;55834;50.870;4.606;2023-07-31T06:29:36;5.25;;;2.72;;
68821;SDS011;55834;50.870;4.606;2023-07-31T06:32:02;4.45;;;2.42;;
68821;SDS011;55834;50.870;4.606;2023-07-31T06:34:27;5.45;;;2.58;;
68821;SDS011;55834;50.870;4.606;2023-07-31T06:36:53;5.05;;;2.53;;
68821;SDS011;55834;50.870;4.606;2023-07-31T06:39:18;5.57;;;3.03;;
68821;SDS011;55834;50.870;4.606;2023-07-31T06:41:43;2.47;;;2.20;;
68821;SDS011;55834;50.870;4.606;2023-07-31T06:44:09;7.88;;;3.17;;
68821;SDS011;55834;50.870;4.606;2023-07-31T06:46:35;4.38;;;2.58;;
68821;SDS011;55834;50.870;4.606;2023-07-31T06:49:00;5.40;;;2.50;;
68821;SDS011;55834;50.870;4.606;2023-07-31T06:51:25;8.07;;;2.90;;
68821;SDS011;55834;50.870;4.606;2023-07-31T06:53:52;5.53;;;2.67;;
68821;SDS011;55834;50.870;4.606;2023-07-31T06:56:17;3.03;;;2.73;;
68821;SDS011;55834;50.870;4.606;2023-07-31T06:58:43;8.20;;;2.70;;
68821;SDS011;55834;50.870;4.606;2023-07-31T07:01:08;4.43;;;2.57;;
68821;SDS011;55834;50.870;4.606;2023-07-31T07:03:34;6.03;;;2.60;;
68821;SDS011;55834;50.870;4.606;2023-07-31T07:05:59;6.10;;;2.42;;
68821;SDS011;55834;50.870;4.606;2023-07-31T07:08:25;5.53;;;2.38;;
68821;SDS011;55834;50.870;4.606;2023-07-31T07:10:50;4.60;;;2.30;;
68821;SDS011;55834;50.870;4.606;2023-07-31T07:13:16;4.50;;;2.00;;
68821;SDS011;55834;50.870;4.606;2023-07-31T07:15:43;3.22;;;2.38;;
68821;SDS011;55834;50.870;4.606;2023-07-31T07:18:12;7.25;;;2.55;;
68821;SDS011;55834;50.870;4.606;2023-07-31T07:20:37;4.63;;;2.57;;
68821;SDS011;55834;50.870;4.606;2023-07-31T07:23:03;8.23;;;3.38;;
68821;SDS011;55834;50.870;4.606;2023-07-31T07:25:28;2.70;;;2.03;;
68821;SDS011;55834;50.870;4.606;2023-07-31T07:27:54;4.20;;;2.00;;
68821;SDS011;55834;50.870;4.606;2023-07-31T07:30:19;4.18;;;2.30;;
68821;SDS011;55834;50.870;4.606;2023-07-31T07:32:45;2.90;;;2.10;;
68821;SDS011;55834;50.870;4.606;2023-07-31T07:35:11;6.68;;;3.08;;
68821;SDS011;55834;50.870;4.606;2023-07-31T07:37:36;10.68;;;2.95;;
68821;SDS011;55834;50.870;4.606;2023-07-31T07:40:02;5.35;;;2.42;;
68821;SDS011;55834;50.870;4.606;2023-07-31T07:42:28;3.65;;;2.08;;
68821;SDS011;55834;50.870;4.606;2023-07-31T07:44:54;3.58;;;2.15;;
68821;SDS011;55834;50.870;4.606;2023-07-31T07:47:19;4.10;;;1.90;;
68821;SDS011;55834;50.870;4.606;2023-07-31T07:49:47;5.17;;;2.20;;
68821;SDS011;55834;50.870;4.606;2023-07-31T07:52:13;7.32;;;2.28;;
68821;SDS011;55834;50.870;4.606;2023-07-31T07:54:39;4.88;;;2.15;;
68821;SDS011;55834;50.870;4.606;2023-07-31T07:57:04;4.85;;;2.22;;
68821;SDS011;55834;50.870;4.606;2023-07-31T07:59:30;3.72;;;2.15;;
68821;SDS011;55834;50.870;4.606;2023-07-31T08:01:55;4.40;;;2.23;;
68821;SDS011;55834;50.870;4.606;2023-07-31T08:04:22;5.35;;;2.47;;
68821;SDS011;55834;50.870;4.606;2023-07-31T08:06:47;4.70;;;2.30;;
68821;SDS011;55834;50.870;4.606;2023-07-31T08:09:13;6.15;;;2.70;;
68821;SDS011;55834;50.870;4.606;2023-07-31T08:11:38;4.13;;;2.13;;
68821;SDS011;55834;50.870;4.606;2023-07-31T08:14:03;3.83;;;2.20;;
68821;SDS011;55834;50.870;4.606;2023-07-31T08:16:29;3.75;;;1.83;;
68821;SDS011;55834;50.870;4.606;2023-07-31T08:18:54;6.45;;;2.15;;
68821;SDS011;55834;50.870;4.606;2023-07-31T08:21:20;2.72;;;2.53;;
68821;SDS011;55834;50.870;4.606;2023-07-31T08:23:46;4.20;;;1.50;;
68821;SDS011;55834;50.870;4.606;2023-07-31T08:26:16;3.13;;;1.55;;
68821;SDS011;55834;50.870;4.606;2023-07-31T08:28:43;4.30;;;2.30;;
68821;SDS011;55834;50.870;4.606;2023-07-31T08:31:12;5.60;;;2.05;;
68821;SDS011;55834;50.870;4.606;2023-07-31T08:33:38;3.08;;;2.17;;
68821;SDS011;55834;50.870;4.606;2023-07-31T08:36:05;5.00;;;2.17;;
68821;SDS011;55834;50.870;4.606;2023-07-31T08:38:30;4.25;;;1.90;;
68821;SDS011;55834;50.870;4.606;2023-07-31T08:40:58;3.78;;;1.98;;
68821;SDS011;55834;50.870;4.606;2023-07-31T08:43:30;3.45;;;1.85;;
68821;SDS011;55834;50.870;4.606;2023-07-31T08:45:59;4.00;;;2.05;;
68821;SDS011;55834;50.870;4.606;2023-07-31T08:48:28;2.45;;;2.03;;
68821;SDS011;55834;50.870;4.606;2023-07-31T08:51:05;3.03;;;2.33;;
68821;SDS011;55834;50.870;4.606;2023-07-31T08:53:36;4.63;;;1.75;;
68821;SDS011;55834;50.870;4.606;2023-07-31T08:56:02;5.15;;;1.73;;
68821;SDS011;55834;50.870;4.606;2023-07-31T08:58:32;2.78;;;1.98;;
68821;SDS011;55834;50.870;4.606;2023-07-31T09:01:04;2.97;;;1.48;;
68821;SDS011;55834;50.870;4.606;2023-07-31T09:03:33;4.93;;;2.25;;
68821;SDS011;55834;50.870;4.606;2023-07-31T09:06:06;4.25;;;1.58;;
68821;SDS011;55834;50.870;4.606;2023-07-31T09:08:36;2.92;;;1.70;;
68821;SDS011;55834;50.870;4.606;2023-07-31T09:11:18;4.43;;;2.08;;
68821;SDS011;55834;50.870;4.606;2023-07-31T09:13:54;5.72;;;2.05;;
68821;SDS011;55834;50.870;4.606;2023-07-31T09:16:29;3.63;;;1.77;;
68821;SDS011;55834;50.870;4.606;2023-07-31T09:18:57;2.83;;;2.00;;
68821;SDS011;55834;50.870;4.606;2023-07-31T09:21:24;6.78;;;2.45;;
68821;SDS011;55834;50.870;4.606;2023-07-31T09:23:51;3.40;;;2.15;;
68821;SDS011;55834;50.870;4.606;2023-07-31T09:26:35;4.30;;;2.45;;
68821;SDS011;55834;50.870;4.606;2023-07-31T09:29:05;3.45;;;1.80;;
68821;SDS011;55834;50.870;4.606;2023-07-31T09:31:41;8.75;;;2.80;;
68821;SDS011;55834;50.870;4.606;2023-07-31T09:34:08;3.80;;;2.17;;
68821;SDS011;55834;50.870;4.606;2023-07-31T09:36:42;4.47;;;2.28;;
68821;SDS011;55834;50.870;4.606;2023-07-31T09:41:44;3.03;;;2.08;;
68821;SDS011;55834;50.870;4.606;2023-07-31T09:44:16;5.43;;;2.92;;
68821;SDS011;55834;50.870;4.606;2023-07-31T09:46:41;4.43;;;1.80;;
68821;SDS011;55834;50.870;4.606;2023-07-31T09:49:08;4.97;;;3.00;;
68821;SDS011;55834;50.870;4.606;2023-07-31T09:51:39;2.90;;;1.85;;
68821;SDS011;55834;50.870;4.606;2023-07-31T09:54:10;2.53;;;1.98;;
68821;SDS011;55834;50.870;4.606;2023-07-31T09:56:45;4.10;;;2.33;;
68821;SDS011;55834;50.870;4.606;2023-07-31T09:59:24;2.75;;;1.92;;
68821;SDS011;55834;50.870;4.606;2023-07-31T10:01:53;5.50;;;2.40;;
68821;SDS011;55834;50.870;4.606;2023-07-31T10:04:21;3.38;;;2.00;;
68821;SDS011;55834;50.870;4.606;2023-07-31T10:06:54;4.68;;;2.53;;
68821;SDS011;55834;50.870;4.606;2023-07-31T10:09:27;3.63;;;2.53;;
68821;SDS011;55834;50.870;4.606;2023-07-31T10:12:08;4.22;;;2.63;;
68821;SDS011;55834;50.870;4.606;2023-07-31T10:14:41;4.55;;;2.60;;
68821;SDS011;55834;50.870;4.606;2023-07-31T10:19:46;2.55;;;1.88;;
68821;SDS011;55834;50.870;4.606;2023-07-31T10:22:13;6.05;;;2.80;;
68821;SDS011;55834;50.870;4.606;2023-07-31T10:27:15;4.78;;;2.60;;
68821;SDS011;55834;50.870;4.606;2023-07-31T10:29:41;3.80;;;2.70;;
68821;SDS011;55834;50.870;4.606;2023-07-31T10:32:15;5.63;;;2.75;;
68821;SDS011;55834;50.870;4.606;2023-07-31T10:34:50;7.25;;;3.35;;
68821;SDS011;55834;50.870;4.606;2023-07-31T10:40:13;4.78;;;2.20;;
68821;SDS011;55834;50.870;4.606;2023-07-31T10:43:23;4.72;;;3.33;;
68821;SDS011;55834;50.870;4.606;2023-07-31T10:45:52;4.57;;;2.67;;
68821;SDS011;55834;50.870;4.606;2023-07-31T10:48:27;6.60;;;3.05;;
68821;SDS011;55834;50.870;4.606;2023-07-31T10:50:59;6.80;;;3.08;;
68821;SDS011;55834;50.870;4.606;2023-07-31T10:53:46;4.32;;;2.45;;
68821;SDS011;55834;50.870;4.606;2023-07-31T10:56:23;6.65;;;2.03;;
68821;SDS011;55834;50.870;4.606;2023-07-31T11:11:15;7.63;;;3.38;;
68821;SDS011;55834;50.870;4.606;2023-07-31T11:24:07;6.82;;;2.88;;
68821;SDS011;55834;50.870;4.606;2023-07-31T11:27:21;5.03;;;3.03;;
68821;SDS011;55834;50.870;4.606;2023-07-31T11:30:19;5.22;;;2.75;;
68821;SDS011;55834;50.870;4.606;2023-07-31T11:32:45;7.68;;;3.13;;
68821;SDS011;55834;50.870;4.606;2023-07-31T11:35:13;5.32;;;2.80;;
68821;SDS011;55834;50.870;4.606;2023-07-31T11:37:40;5.50;;;2.47;;
68821;SDS011;55834;50.870;4.606;2023-07-31T11:40:09;4.03;;;2.92;;
68821;SDS011;55834;50.870;4.606;2023-07-31T11:42:36;4.00;;;2.80;;
68821;SDS011;55834;50.870;4.606;2023-07-31T11:45:05;7.57;;;3.40;;
68821;SDS011;55834;50.870;4.606;2023-07-31T11:47:34;6.80;;;3.28;;
68821;SDS011;55834;50.870;4.606;2023-07-31T11:50:01;4.47;;;2.47;;
68821;SDS011;55834;50.870;4.606;2023-07-31T11:54:58;4.65;;;2.75;;
68821;SDS011;55834;50.870;4.606;2023-07-31T11:57:24;7.07;;;2.78;;
68821;SDS011;55834;50.870;4.606;2023-07-31T11:59:53;6.45;;;3.33;;
68821;SDS011;55834;50.870;4.606;2023-07-31T12:02:20;3.58;;;2.67;;
68821;SDS011;55834;50.870;4.606;2023-07-31T12:04:49;4.38;;;2.65;;
68821;SDS011;55834;50.870;4.606;2023-07-31T12:07:15;7.07;;;3.35;;
68821;SDS011;55834;50.870;4.606;2023-07-31T12:09:53;4.63;;;2.60;;
68821;SDS011;55834;50.870;4.606;2023-07-31T12:12:22;8.63;;;2.50;;
68821;SDS011;55834;50.870;4.606;2023-07-31T12:14:57;5.10;;;3.05;;
68821;SDS011;55834;50.870;4.606;2023-07-31T12:17:51;10.32;;;3.33;;
68821;SDS011;55834;50.870;4.606;2023-07-31T12:20:19;4.45;;;2.72;;
68821;SDS011;55834;50.870;4.606;2023-07-31T12:22:45;5.75;;;2.85;;
68821;SDS011;55834;50.870;4.606;2023-07-31T12:25:16;6.30;;;2.65;;
68821;SDS011;55834;50.870;4.606;2023-07-31T12:27:44;5.65;;;3.05;;
68821;SDS011;55834;50.870;4.606;2023-07-31T12:30:26;5.13;;;2.42;;
68821;SDS011;55834;50.870;4.606;2023-07-31T12:32:56;6.93;;;2.72;;
68821;SDS011;55834;50.870;4.606;2023-07-31T12:35:38;4.68;;;3.05;;
68821;SDS011;55834;50.870;4.606;2023-07-31T12:38:06;6.10;;;2.92;;
68821;SDS011;55834;50.870;4.606;2023-07-31T12:40:32;3.75;;;2.25;;
68821;SDS011;55834;50.870;4.606;2023-07-31T12:43:03;6.10;;;2.75;;
68821;SDS011;55834;50.870;4.606;2023-07-31T12:45:29;6.85;;;2.78;;
68821;SDS011;55834;50.870;4.606;2023-07-31T12:47:56;9.05;;;3.63;;
68821;SDS011;55834;50.870;4.606;2023-07-31T12:50:32;5.90;;;3.28;;
68821;SDS011;55834;50.870;4.606;2023-07-31T12:53:01;4.97;;;2.83;;
68821;SDS011;55834;50.870;4.606;2023-07-31T12:55:28;7.22;;;3.90;;
68821;SDS011;55834;50.870;4.606;2023-07-31T12:58:01;5.80;;;2.97;;
68821;SDS011;55834;50.870;4.606;2023-07-31T13:00:28;8.65;;;3.35;;
68821;SDS011;55834;50.870;4.606;2023-07-31T13:02:54;6.10;;;3.10;;
68821;SDS011;55834;50.870;4.606;2023-07-31T13:05:28;6.78;;;3.72;;
68821;SDS011;55834;50.870;4.606;2023-07-31T13:07:54;7.43;;;3.28;;
68821;SDS011;55834;50.870;4.606;2023-07-31T13:10:19;5.93;;;3.45;;
68821;SDS011;55834;50.870;4.606;2023-07-31T13:12:45;6.28;;;3.25;;
68821;SDS011;55834;50.870;4.606;2023-07-31T13:15:14;8.13;;;4.07;;
68821;SDS011;55834;50.870;4.606;2023-07-31T13:17:40;8.27;;;3.38;;
68821;SDS011;55834;50.870;4.606;2023-07-31T13:20:06;6.72;;;3.10;;
68821;SDS011;55834;50.870;4.606;2023-07-31T13:22:32;5.15;;;2.70;;
68821;SDS011;55834;50.870;4.606;2023-07-31T13:24:58;7.25;;;3.83;;
68821;SDS011;55834;50.870;4.606;2023-07-31T13:27:24;12.60;;;3.72;;
68821;SDS011;55834;50.870;4.606;2023-07-31T13:29:50;5.82;;;2.47;;
68821;SDS011;55834;50.870;4.606;2023-07-31T13:32:16;4.75;;;2.80;;
68821;SDS011;55834;50.870;4.606;2023-07-31T13:34:43;3.75;;;2.58;;
68821;SDS011;55834;50.870;4.606;2023-07-31T13:37:09;5.35;;;2.30;;
68821;SDS011;55834;50.870;4.606;2023-07-31T13:39:35;5.05;;;2.67;;
68821;SDS011;55834;50.870;4.606;2023-07-31T13:42:02;3.70;;;2.35;;
68821;SDS011;55834;50.870;4.606;2023-07-31T13:44:28;4.47;;;2.13;;
68821;SDS011;55834;50.870;4.606;2023-07-31T13:46:54;5.07;;;2.03;;
68821;SDS011;55834;50.870;4.606;2023-07-31T13:49:19;3.47;;;2.25;;
68821;SDS011;55834;50.870;4.606;2023-07-31T13:51:45;5.28;;;2.05;;
68821;SDS011;55834;50.870;4.606;2023-07-31T13:54:11;4.32;;;1.80;;
68821;SDS011;55834;50.870;4.606;2023-07-31T13:56:37;3.65;;;1.83;;
68821;SDS011;55834;50.870;4.606;2023-07-31T13:59:03;3.55;;;2.20;;
68821;SDS011;55834;50.870;4.606;2023-07-31T14:01:31;1.95;;;1.52;;
68821;SDS011;55834;50.870;4.606;2023-07-31T14:03:57;5.22;;;1.95;;
68821;SDS011;55834;50.870;4.606;2023-07-31T14:06:49;4.25;;;1.77;;
68821;SDS011;55834;50.870;4.606;2023-07-31T14:09:19;2.72;;;1.80;;
68821;SDS011;55834;50.870;4.606;2023-07-31T14:11:53;3.70;;;1.73;;
68821;SDS011;55834;50.870;4.606;2023-07-31T14:14:18;2.75;;;1.55;;
68821;SDS011;55834;50.870;4.606;2023-07-31T14:16:46;2.10;;;1.60;;
68821;SDS011;55834;50.870;4.606;2023-07-31T14:19:12;3.20;;;1.40;;
68821;SDS011;55834;50.870;4.606;2023-07-31T14:21:39;2.80;;;1.85;;
68821;SDS011;55834;50.870;4.606;2023-07-31T14:24:08;1.45;;;1.35;;
68821;SDS011;55834;50.870;4.606;2023-07-31T14:26:37;1.73;;;1.38;;
68821;SDS011;55834;50.870;4.606;2023-07-31T14:29:02;3.08;;;2.03;;
68821;SDS011;55834;50.870;4.606;2023-07-31T14:31:37;3.28;;;1.60;;
68821;SDS011;55834;50.870;4.606;2023-07-31T14:34:04;1.98;;;1.50;;
68821;SDS011;55834;50.870;4.606;2023-07-31T14:36:35;1.77;;;1.65;;
68821;SDS011;55834;50.870;4.606;2023-07-31T14:45:04;2.50;;;1.55;;
68821;SDS011;55834;50.870;4.606;2023-07-31T14:47:41;5.07;;;1.90;;
68821;SDS011;55834;50.870;4.606;2023-07-31T14:50:06;2.58;;;1.75;;
68821;SDS011;55834;50.870;4.606;2023-07-31T14:52:38;4.25;;;2.08;;
68821;SDS011;55834;50.870;4.606;2023-07-31T14:55:20;2.28;;;1.80;;
68821;SDS011;55834;50.870;4.606;2023-07-31T14:58:08;3.42;;;1.73;;
68821;SDS011;55834;50.870;4.606;2023-07-31T15:00:43;4.30;;;1.75;;
68821;SDS011;55834;50.870;4.606;2023-07-31T15:03:09;2.88;;;1.45;;
68821;SDS011;55834;50.870;4.606;2023-07-31T15:05:43;3.20;;;1.50;;
68821;SDS011;55834;50.870;4.606;2023-07-31T15:08:09;1.90;;;1.25;;
68821;SDS011;55834;50.870;4.606;2023-07-31T15:10:37;2.03;;;1.50;;
68821;SDS011;55834;50.870;4.606;2023-07-31T15:13:13;1.85;;;1.65;;
68821;SDS011;55834;50.870;4.606;2023-07-31T15:15:38;1.10;;;0.95;;
68821;SDS011;55834;50.870;4.606;2023-07-31T15:18:06;2.13;;;1.27;;
68821;SDS011;55834;50.870;4.606;2023-07-31T15:23:23;3.15;;;1.33;;
68821;SDS011;55834;50.870;4.606;2023-07-31T15:25:53;0.90;;;0.90;;
68821;SDS011;55834;50.870;4.606;2023-07-31T15:28:28;2.47;;;1.00;;
68821;SDS011;55834;50.870;4.606;2023-07-31T15:30:56;1.40;;;0.80;;
68821;SDS011;55834;50.870;4.606;2023-07-31T15:33:22;1.10;;;0.70;;
68821;SDS011;55834;50.870;4.606;2023-07-31T15:35:57;2.03;;;1.52;;
68821;SDS011;55834;50.870;4.606;2023-07-31T15:38:25;0.68;;;0.68;;
68821;SDS011;55834;50.870;4.606;2023-07-31T15:40:51;1.25;;;0.93;;
68821;SDS011;55834;50.870;4.606;2023-07-31T15:43:17;1.30;;;0.50;;
68821;SDS011;55834;50.870;4.606;2023-07-31T15:45:45;1.27;;;0.60;;